Time;durP1;ratioP1;P1;durP2;ratioP2;P2;SDS_P1;SDS_P2;PMS_P1;PMS_P2;Temp;Humidity;BMP_temperature;BMP_pressure;BME280_temperature;BME280_humidity;BME280_pressure;Samples;Min_cycle;Max_cycle;Signal;HPM_P1;HPM_P2
2022/08/04 00:00:06;;;;;;;1.90;1.80;;;25.60;55.20;;;;;;5034820;28;20188;-76
2022/08/04 00:02:43;;;;;;;2.28;2.08;;;25.60;55.20;;;;;;5034663;28;20262;-76
2022/08/04 00:05:16;;;;;;;3.45;2.10;;;25.60;55.30;;;;;;5031263;28;20198;-76
2022/08/04 00:07:48;;;;;;;1.85;1.73;;;25.60;55.70;;;;;;5034955;28;20590;-76
2022/08/04 00:10:19;;;;;;;2.40;1.90;;;25.60;55.30;;;;;;5035119;28;20208;-76
2022/08/04 00:12:51;;;;;;;2.30;2.10;;;25.50;55.30;;;;;;5034740;28;20220;-76
2022/08/04 00:15:18;;;;;;;1.90;1.80;;;25.50;55.20;;;;;;5034909;28;20184;-77
2022/08/04 00:17:46;;;;;;;2.72;2.25;;;25.50;55.30;;;;;;5034796;28;20690;-76
2022/08/04 00:20:14;;;;;;;2.08;1.88;;;25.50;55.40;;;;;;5018879;28;20266;-77
2022/08/04 00:22:41;;;;;;;3.25;2.40;;;25.50;55.40;;;;;;5034685;28;20200;-76
2022/08/04 00:25:10;;;;;;;2.25;1.90;;;25.50;55.40;;;;;;5034366;28;20291;-76
2022/08/04 00:27:37;;;;;;;2.20;2.10;;;25.50;55.40;;;;;;5034751;28;20220;-76
2022/08/04 00:30:07;;;;;;;1.90;1.80;;;25.50;55.40;;;;;;5034379;28;20287;-76
2022/08/04 00:32:34;;;;;;;2.03;1.80;;;25.50;55.50;;;;;;5034336;28;20274;-76
2022/08/04 00:35:01;;;;;;;2.10;1.90;;;25.40;55.40;;;;;;5034293;28;20702;-76
2022/08/04 00:37:28;;;;;;;2.22;2.00;;;25.40;55.40;;;;;;5035317;28;20216;-76
2022/08/04 00:39:55;;;;;;;2.00;1.65;;;25.40;55.40;;;;;;5033952;28;20196;-76
2022/08/04 00:42:37;;;;;;;2.55;1.90;;;25.40;55.40;;;;;;5035295;28;20219;-76
2022/08/04 00:45:26;;;;;;;2.20;2.00;;;25.40;55.50;;;;;;5033629;28;20639;-75
2022/08/04 00:48:01;;;;;;;2.50;2.03;;;25.40;55.40;;;;;;5002099;28;20611;-77
2022/08/04 00:50:33;;;;;;;2.10;2.00;;;25.40;55.50;;;;;;5033584;28;20196;-77
2022/08/04 00:53:13;;;;;;;2.83;2.22;;;25.40;55.50;;;;;;5034175;28;20204;-76
2022/08/04 00:55:50;;;;;;;2.00;1.90;;;25.30;55.40;;;;;;5035084;28;20263;-75
2022/08/04 00:58:28;;;;;;;2.25;2.03;;;25.40;55.50;;;;;;5033532;28;20626;-77
2022/08/04 01:00:59;;;;;;;2.00;1.90;;;25.30;55.50;;;;;;5034854;28;20180;-75
2022/08/04 01:03:34;;;;;;;3.67;2.00;;;25.30;55.50;;;;;;5033044;28;20295;-76
2022/08/04 01:06:06;;;;;;;2.28;2.17;;;25.30;55.50;;;;;;5034352;28;20219;-76
2022/08/04 01:08:45;;;;;;;2.42;1.88;;;25.30;55.60;;;;;;5033508;28;20211;-75
2022/08/04 01:11:16;;;;;;;2.65;2.20;;;25.30;55.50;;;;;;5033635;28;20192;-77
2022/08/04 01:14:00;;;;;;;2.65;2.05;;;25.30;55.60;;;;;;5033481;28;20193;-75
2022/08/04 01:16:28;;;;;;;1.83;1.73;;;25.30;55.60;;;;;;5033446;28;20231;-77
2022/08/04 01:18:57;;;;;;;2.42;2.10;;;25.30;55.60;;;;;;5032881;28;20199;-77
2022/08/04 01:21:38;;;;;;;3.10;2.20;;;25.20;55.60;;;;;;5033237;28;20199;-74
2022/08/04 01:24:19;;;;;;;2.28;1.80;;;25.20;55.50;;;;;;5033896;28;20188;-75
2022/08/04 01:26:57;;;;;;;2.22;2.03;;;25.20;55.60;;;;;;5033257;28;20223;-76
2022/08/04 01:29:26;;;;;;;2.10;2.00;;;25.20;55.60;;;;;;5033173;28;20196;-76
2022/08/04 01:32:04;;;;;;;2.10;1.92;;;25.20;55.60;;;;;;5033138;28;20262;-77
2022/08/04 01:34:35;;;;;;;2.17;1.98;;;25.20;55.60;;;;;;5033982;28;20207;-76
2022/08/04 01:37:11;;;;;;;2.65;2.05;;;25.20;55.70;;;;;;5033041;28;20249;-76
2022/08/04 01:39:42;;;;;;;2.88;2.22;;;25.10;55.70;;;;;;5033168;28;20199;-76
2022/08/04 01:42:10;;;;;;;1.85;1.75;;;25.10;55.70;;;;;;5033228;28;20188;-76
2022/08/04 01:44:39;;;;;;;2.08;1.88;;;25.10;55.70;;;;;;5032920;28;20200;-75
2022/08/04 01:47:07;;;;;;;2.50;2.00;;;25.10;55.70;;;;;;5034073;28;20212;-77
2022/08/04 01:49:34;;;;;;;2.00;1.90;;;25.10;55.70;;;;;;5032902;28;20250;-76
2022/08/04 01:52:01;;;;;;;2.00;1.80;;;25.10;55.70;;;;;;5032984;28;20216;-76
2022/08/04 01:54:28;;;;;;;2.85;2.10;;;25.10;55.70;;;;;;5033866;28;20679;-75
2022/08/04 01:56:55;;;;;;;1.88;1.70;;;25.00;55.70;;;;;;5033044;28;20220;-75
2022/08/04 01:59:22;;;;;;;2.17;1.98;;;25.10;55.70;;;;;;5033762;28;20715;-75
2022/08/04 02:01:51;;;;;;;2.33;2.13;;;25.10;55.70;;;;;;5034223;28;20192;-76
2022/08/04 02:04:19;;;;;;;2.22;2.03;;;25.10;55.70;;;;;;5033577;28;20200;-77
2022/08/04 02:06:52;;;;;;;2.20;2.03;;;25.00;55.70;;;;;;5033100;28;20215;-76
2022/08/04 02:09:23;;;;;;;2.08;1.98;;;25.00;55.60;;;;;;5032778;28;20537;-76
2022/08/04 02:11:57;;;;;;;2.05;1.95;;;25.00;55.70;;;;;;5033500;28;20646;-74
2022/08/04 02:14:40;;;;;;;2.22;1.80;;;25.00;55.70;;;;;;5036642;28;20227;-76
2022/08/04 02:17:11;;;;;;;2.00;1.90;;;25.00;55.70;;;;;;5037796;28;20212;-76
2022/08/04 02:19:46;;;;;;;3.40;2.10;;;25.00;55.70;;;;;;5036701;28;20279;-76
2022/08/04 02:22:17;;;;;;;2.30;2.10;;;25.00;55.70;;;;;;5036942;28;20192;-76
2022/08/04 02:24:46;;;;;;;3.13;2.30;;;25.00;55.70;;;;;;5036680;28;20550;-76
2022/08/04 02:27:13;;;;;;;2.20;2.00;;;24.90;55.70;;;;;;5036394;28;20219;-76
2022/08/04 02:29:44;;;;;;;2.40;2.20;;;24.90;55.70;;;;;;5037054;28;20251;-76
2022/08/04 02:32:15;;;;;;;2.25;2.05;;;24.90;55.70;;;;;;5037475;28;20214;-77
2022/08/04 02:34:44;;;;;;;2.13;2.03;;;24.90;55.80;;;;;;5036652;28;20224;-76
2022/08/04 02:37:11;;;;;;;1.90;1.80;;;24.90;55.80;;;;;;5036415;28;20236;-76
2022/08/04 02:39:38;;;;;;;2.13;2.00;;;24.90;55.80;;;;;;5036245;28;20200;-76
2022/08/04 02:42:05;;;;;;;2.20;2.00;;;24.90;55.70;;;;;;5036492;28;20272;-76
2022/08/04 02:44:32;;;;;;;2.03;1.92;;;24.90;55.70;;;;;;5019737;28;20680;-76
2022/08/04 02:47:00;;;;;;;2.75;2.10;;;24.90;55.80;;;;;;5036192;28;20786;-76
2022/08/04 02:49:29;;;;;;;2.30;2.10;;;24.90;55.90;;;;;;5019907;28;20200;-76
2022/08/04 02:51:57;;;;;;;2.10;1.90;;;24.90;55.70;;;;;;5036858;28;20219;-76
2022/08/04 02:54:25;;;;;;;2.33;2.13;;;24.80;55.70;;;;;;5035685;28;20287;-76
2022/08/04 02:56:53;;;;;;;2.58;2.30;;;24.80;55.80;;;;;;5035614;28;20706;-76
2022/08/04 02:59:22;;;;;;;2.10;2.00;;;24.80;55.80;;;;;;5035491;28;20200;-76
2022/08/04 03:01:49;;;;;;;2.75;1.92;;;24.80;55.80;;;;;;5035592;28;20196;-76
2022/08/04 03:04:42;;;;;;;3.15;2.15;;;24.80;55.80;;;;;;5035816;28;20207;-76
2022/08/04 03:07:33;;;;;;;2.10;2.00;;;24.80;55.70;;;;;;5036507;28;20223;-76
2022/08/04 03:10:30;;;;;;;2.60;2.10;;;24.80;55.70;;;;;;5038497;28;20208;-77
2022/08/04 03:13:27;;;;;;;2.20;2.00;;;24.80;55.70;;;;;;5035901;28;20212;-75
2022/08/04 03:16:13;;;;;;;2.55;2.20;;;24.80;55.80;;;;;;5002547;28;20223;-75
2022/08/04 03:19:10;;;;;;;2.15;1.95;;;24.80;55.60;;;;;;5040255;28;20230;-75
2022/08/04 03:22:00;;;;;;;2.85;1.90;;;24.80;55.60;;;;;;5059857;28;20195;-75
2022/08/04 03:24:44;;;;;;;2.30;2.10;;;24.80;55.70;;;;;;5035586;28;20199;-75
2022/08/04 03:27:12;;;;;;;2.55;2.15;;;24.70;56.20;;;;;;5037738;28;20241;-77
2022/08/04 03:30:01;;;;;;;2.50;2.30;;;24.70;55.60;;;;;;5037924;28;20196;-77
2022/08/04 03:32:43;;;;;;;2.17;2.05;;;24.70;55.50;;;;;;5037751;28;20239;-77
2022/08/04 03:35:23;;;;;;;2.55;2.08;;;24.70;55.40;;;;;;5037512;28;20647;-75
2022/08/04 03:38:12;;;;;;;2.20;2.00;;;24.70;55.40;;;;;;5035560;28;20219;-75
2022/08/04 03:41:01;;;;;;;3.03;2.20;;;24.80;55.50;;;;;;5036072;28;20180;-75
2022/08/04 03:43:44;;;;;;;2.25;2.10;;;24.80;56.10;;;;;;5034795;28;20195;-76
2022/08/04 03:46:36;;;;;;;2.28;2.08;;;24.80;55.50;;;;;;5035286;28;20220;-77
2022/08/04 03:50:07;;;;;;;2.45;2.08;;;24.80;55.40;;;;;;5036541;28;20219;-75
2022/08/04 03:53:10;;;;;;;2.20;2.08;;;24.80;55.50;;;;;;5033519;28;20223;-75
2022/08/04 03:56:16;;;;;;;2.30;2.10;;;24.80;55.40;;;;;;5034572;28;20184;-75
2022/08/04 03:59:14;;;;;;;2.42;2.22;;;24.80;55.50;;;;;;5017496;28;20200;-75
2022/08/04 04:01:56;;;;;;;2.00;1.90;;;24.80;55.20;;;;;;5005509;28;20651;-76
2022/08/04 04:04:39;;;;;;;2.10;2.00;;;24.70;55.40;;;;;;5035730;28;20188;-76
2022/08/04 04:07:29;;;;;;;2.00;1.90;;;24.70;55.20;;;;;;5018452;28;20682;-76
2022/08/04 04:10:13;;;;;;;2.72;2.00;;;24.70;55.30;;;;;;5034194;28;20208;-76
2022/08/04 04:13:00;;;;;;;2.00;1.90;;;24.70;55.10;;;;;;5034420;28;20220;-76
2022/08/04 04:15:47;;;;;;;2.30;2.10;;;24.80;55.30;;;;;;5034607;28;20566;-76
2022/08/04 04:18:22;;;;;;;3.95;2.28;;;24.70;55.10;;;;;;5034984;28;20208;-76
2022/08/04 04:21:06;;;;;;;2.42;1.95;;;24.70;55.10;;;;;;5034388;28;20639;-76
2022/08/04 04:24:10;;;;;;;1.95;1.85;;;24.70;55.00;;;;;;5034504;28;20188;-75
2022/08/04 04:26:42;;;;;;;2.45;1.95;;;24.80;55.10;;;;;;5035611;28;20273;-76
2022/08/04 04:29:27;;;;;;;2.33;2.00;;;24.70;55.10;;;;;;5034715;28;20227;-76
2022/08/04 04:32:03;;;;;;;2.88;2.10;;;24.70;54.90;;;;;;5035501;28;20200;-76
2022/08/04 04:34:40;;;;;;;1.92;1.83;;;24.70;54.90;;;;;;5034323;28;20216;-76
2022/08/04 04:37:21;;;;;;;2.00;1.90;;;24.70;55.00;;;;;;5033947;28;20220;-76
2022/08/04 04:39:57;;;;;;;2.20;2.00;;;24.70;55.00;;;;;;5033999;28;20270;-76
2022/08/04 04:42:42;;;;;;;2.63;2.20;;;24.70;54.80;;;;;;5034464;28;20191;-76
2022/08/04 04:45:15;;;;;;;3.83;2.10;;;24.70;55.20;;;;;;5034509;28;20571;-75
2022/08/04 04:47:58;;;;;;;3.28;2.17;;;24.60;54.80;;;;;;5033736;28;20239;-76
2022/08/04 04:50:31;;;;;;;2.42;2.05;;;24.30;55.20;;;;;;5033544;28;20196;-76
2022/08/04 04:53:02;;;;;;;2.25;2.05;;;24.20;55.90;;;;;;5033582;28;20220;-77
2022/08/04 04:55:33;;;;;;;4.97;2.22;;;23.90;56.40;;;;;;5034104;28;20288;-75
2022/08/04 04:58:00;;;;;;;2.38;2.13;;;23.80;57.00;;;;;;5033452;28;20709;-76
2022/08/04 05:00:34;;;;;;;2.42;2.10;;;23.70;56.90;;;;;;5033990;28;20207;-75
2022/08/04 05:03:33;;;;;;;3.70;2.30;;;23.80;56.90;;;;;;5018243;28;20227;-74
2022/08/04 05:06:14;;;;;;;2.60;2.10;;;23.90;56.40;;;;;;5022810;28;20598;-75
2022/08/04 05:09:03;;;;;;;2.92;2.15;;;23.90;56.20;;;;;;5033248;28;20238;-76
2022/08/04 05:12:01;;;;;;;3.05;2.28;;;24.00;56.20;;;;;;5033908;28;20616;-74
2022/08/04 05:14:29;;;;;;;3.35;1.83;;;24.10;55.80;;;;;;5008840;28;20732;-76
2022/08/04 05:17:00;;;;;;;3.65;2.08;;;24.20;55.70;;;;;;5034855;28;20215;-75
2022/08/04 05:19:32;;;;;;;2.25;2.05;;;24.20;55.80;;;;;;5033137;28;20283;-76
2022/08/04 05:22:01;;;;;;;2.30;2.10;;;24.40;55.30;;;;;;5033126;28;20254;-75
2022/08/04 05:24:28;;;;;;;3.40;2.20;;;24.70;55.40;;;;;;5033858;28;20189;-75
2022/08/04 05:26:56;;;;;;;2.53;1.98;;;24.90;54.80;;;;;;5033404;28;20228;-75
2022/08/04 05:29:27;;;;;;;2.10;1.85;;;25.20;54.30;;;;;;5033284;28;20681;-75
2022/08/04 05:31:54;;;;;;;3.65;2.30;;;25.40;53.70;;;;;;5032910;28;20208;-75
2022/08/04 05:34:22;;;;;;;2.30;2.15;;;25.60;53.20;;;;;;5033154;28;20218;-74
2022/08/04 05:36:52;;;;;;;2.33;2.00;;;25.80;52.70;;;;;;5033730;28;20640;-76
2022/08/04 05:39:21;;;;;;;2.30;1.98;;;25.90;52.40;;;;;;5032722;28;20761;-77
2022/08/04 05:41:49;;;;;;;2.08;1.90;;;26.20;52.10;;;;;;5032764;28;20200;-77
2022/08/04 05:44:16;;;;;;;2.03;1.88;;;26.30;51.80;;;;;;5032727;28;20188;-76
2022/08/04 05:46:44;;;;;;;1.80;1.70;;;26.40;51.40;;;;;;5033372;28;20224;-77
2022/08/04 05:49:11;;;;;;;2.38;2.17;;;26.60;51.00;;;;;;5032422;28;20200;-75
2022/08/04 05:51:38;;;;;;;3.22;2.13;;;26.70;50.80;;;;;;5032376;28;20196;-74
2022/08/04 05:54:06;;;;;;;2.25;2.05;;;26.80;50.70;;;;;;5032368;28;20302;-74
2022/08/04 05:56:34;;;;;;;2.40;2.20;;;26.90;50.40;;;;;;5032342;28;20303;-73
2022/08/04 05:59:01;;;;;;;2.33;1.92;;;27.00;50.10;;;;;;5016033;28;20231;-72
2022/08/04 06:01:28;;;;;;;2.20;2.00;;;27.10;50.00;;;;;;5032331;28;20196;-75
2022/08/04 06:03:56;;;;;;;2.13;2.03;;;27.20;50.50;;;;;;5033048;28;20220;-74
2022/08/04 06:06:23;;;;;;;3.15;2.00;;;27.30;49.70;;;;;;5016973;28;20760;-76
2022/08/04 06:08:50;;;;;;;2.30;1.90;;;27.50;49.50;;;;;;5032943;28;20200;-73
2022/08/04 06:11:19;;;;;;;2.13;2.03;;;27.60;49.30;;;;;;5032272;28;20604;-74
2022/08/04 06:13:50;;;;;;;2.42;2.22;;;27.70;49.10;;;;;;5032347;28;20220;-74
2022/08/04 06:16:19;;;;;;;2.30;2.10;;;27.80;48.90;;;;;;5032220;28;20255;-75
2022/08/04 06:18:46;;;;;;;4.03;2.10;;;27.90;48.70;;;;;;5032316;28;20203;-74
2022/08/04 06:21:13;;;;;;;2.33;2.08;;;28.00;48.40;;;;;;5033018;28;20282;-73
2022/08/04 06:23:40;;;;;;;2.03;1.83;;;28.10;48.20;;;;;;5032552;28;20555;-73
2022/08/04 06:26:07;;;;;;;2.00;1.90;;;28.10;47.90;;;;;;5032661;28;20298;-73
2022/08/04 06:28:35;;;;;;;3.13;2.00;;;28.20;47.70;;;;;;5033461;28;20721;-73
2022/08/04 06:31:04;;;;;;;2.00;1.90;;;28.30;47.60;;;;;;5032063;28;20662;-73
2022/08/04 06:33:33;;;;;;;2.20;2.10;;;28.40;47.30;;;;;;5016045;28;20250;-73
2022/08/04 06:36:01;;;;;;;2.70;1.92;;;28.50;47.40;;;;;;5032029;28;20231;-73
2022/08/04 06:38:28;;;;;;;2.47;2.17;;;28.50;47.10;;;;;;5033527;28;20199;-73
2022/08/04 06:40:56;;;;;;;2.35;2.15;;;28.60;47.00;;;;;;5032239;28;20223;-75
2022/08/04 06:43:24;;;;;;;2.05;1.90;;;28.60;46.90;;;;;;5031704;28;20201;-74
2022/08/04 06:45:52;;;;;;;2.03;1.83;;;28.70;46.70;;;;;;5032493;28;20302;-72
2022/08/04 06:48:19;;;;;;;1.90;1.80;;;28.80;46.60;;;;;;5032837;28;20242;-72
2022/08/04 06:50:48;;;;;;;2.22;2.03;;;28.80;46.60;;;;;;5031851;28;20195;-73
2022/08/04 06:53:14;;;;;;;2.25;2.10;;;28.90;46.40;;;;;;5033173;28;20208;-74
2022/08/04 06:55:43;;;;;;;1.90;1.80;;;29.00;46.30;;;;;;5033107;28;20204;-73
2022/08/04 06:58:11;;;;;;;2.00;1.90;;;29.00;46.20;;;;;;5031803;28;20204;-75
2022/08/04 07:00:38;;;;;;;1.98;1.88;;;29.10;46.00;;;;;;5035212;28;20557;-73
2022/08/04 07:03:07;;;;;;;2.30;2.10;;;29.10;45.80;;;;;;5035521;28;20211;-73
2022/08/04 07:05:35;;;;;;;2.55;1.90;;;29.20;45.70;;;;;;5035358;28;20199;-73
2022/08/04 07:08:02;;;;;;;2.05;1.95;;;29.20;45.60;;;;;;5035555;28;20287;-74
2022/08/04 07:10:30;;;;;;;2.70;1.88;;;29.30;45.50;;;;;;5035554;28;20208;-73
2022/08/04 07:12:57;;;;;;;2.10;1.90;;;29.30;45.30;;;;;;5035280;28;20604;-74
2022/08/04 07:15:24;;;;;;;2.53;2.00;;;29.40;45.30;;;;;;5036817;28;20245;-74
2022/08/04 07:17:52;;;;;;;1.70;1.60;;;29.50;45.10;;;;;;5036840;28;20207;-73
2022/08/04 07:20:20;;;;;;;1.92;1.83;;;29.50;44.90;;;;;;5036588;28;20646;-72
2022/08/04 07:22:48;;;;;;;2.20;2.00;;;29.60;44.90;;;;;;5036560;28;20195;-73
2022/08/04 07:25:15;;;;;;;1.98;1.80;;;29.70;44.80;;;;;;5035295;28;20200;-74
2022/08/04 07:27:42;;;;;;;2.25;2.05;;;29.70;44.60;;;;;;5035047;28;20219;-74
2022/08/04 07:30:10;;;;;;;2.35;2.00;;;29.70;44.50;;;;;;5034973;28;20654;-74
2022/08/04 07:32:37;;;;;;;2.00;1.90;;;29.80;44.40;;;;;;5035024;28;20223;-73
2022/08/04 07:35:05;;;;;;;2.55;2.00;;;29.90;44.30;;;;;;5034794;28;20223;-74
2022/08/04 07:37:34;;;;;;;2.38;2.00;;;29.90;44.10;;;;;;5034694;28;20273;-74
2022/08/04 07:40:01;;;;;;;2.40;2.00;;;30.00;44.00;;;;;;5034955;28;20286;-73
2022/08/04 07:42:28;;;;;;;1.80;1.70;;;30.00;44.00;;;;;;5035314;28;20673;-74
2022/08/04 07:44:55;;;;;;;1.83;1.73;;;30.10;43.90;;;;;;5018653;28;20654;-73
2022/08/04 07:47:22;;;;;;;1.70;1.60;;;30.10;43.80;;;;;;5035000;28;20216;-75
2022/08/04 07:49:49;;;;;;;2.20;2.00;;;30.20;43.70;;;;;;5035053;28;20227;-74
2022/08/04 07:52:16;;;;;;;1.83;1.70;;;30.20;43.60;;;;;;5035365;28;20195;-73
2022/08/04 07:54:45;;;;;;;2.00;1.90;;;30.30;43.60;;;;;;5035177;28;20230;-74
2022/08/04 07:57:12;;;;;;;2.67;1.90;;;30.30;43.50;;;;;;5034857;28;20253;-75
2022/08/04 07:59:39;;;;;;;2.03;1.83;;;30.30;43.40;;;;;;5034675;28;20195;-74
2022/08/04 08:02:06;;;;;;;2.13;1.90;;;30.30;43.30;;;;;;5034720;28;20195;-74
2022/08/04 08:04:33;;;;;;;1.80;1.70;;;30.40;43.30;;;;;;5034507;28;20192;-74
2022/08/04 08:07:00;;;;;;;2.88;1.85;;;30.40;43.10;;;;;;5034560;28;20318;-74
2022/08/04 08:09:27;;;;;;;1.80;1.70;;;30.40;43.00;;;;;;5034581;28;20692;-75
2022/08/04 08:11:56;;;;;;;2.00;1.80;;;30.40;43.00;;;;;;5034035;28;20282;-75
2022/08/04 08:14:23;;;;;;;1.77;1.67;;;30.40;43.00;;;;;;5035372;28;20207;-75
2022/08/04 08:16:50;;;;;;;2.00;1.80;;;30.40;43.60;;;;;;5034536;28;20270;-74
2022/08/04 08:19:17;;;;;;;2.50;2.10;;;30.40;43.00;;;;;;5035493;28;20194;-74
2022/08/04 08:21:46;;;;;;;3.08;1.98;;;30.40;43.00;;;;;;5033987;28;20618;-76
2022/08/04 08:24:14;;;;;;;2.30;2.10;;;30.40;43.00;;;;;;5034269;28;20670;-74
2022/08/04 08:26:41;;;;;;;2.20;2.00;;;30.40;43.10;;;;;;5034279;28;20302;-75
2022/08/04 08:29:10;;;;;;;2.10;1.90;;;30.40;43.00;;;;;;5034452;28;20291;-75
2022/08/04 08:31:36;;;;;;;3.00;1.80;;;30.40;43.10;;;;;;5033912;28;20195;-75
2022/08/04 08:34:04;;;;;;;2.45;1.90;;;30.40;43.00;;;;;;5034864;28;20285;-75
2022/08/04 08:36:34;;;;;;;2.22;2.05;;;30.40;43.00;;;;;;5033803;28;20277;-75
2022/08/04 08:39:03;;;;;;;2.30;2.10;;;30.50;43.70;;;;;;5033800;28;20195;-76
2022/08/04 08:41:55;;;;;;;3.20;2.10;;;30.50;43.10;;;;;;5033550;28;20199;-75
2022/08/04 08:44:58;;;;;;;2.33;2.13;;;30.50;43.00;;;;;;5027051;28;20242;-74
2022/08/04 08:47:35;;;;;;;2.50;2.30;;;30.60;43.00;;;;;;5033884;28;20310;-74
2022/08/04 08:50:18;;;;;;;2.72;2.10;;;30.60;43.00;;;;;;5033373;28;20286;-75
2022/08/04 08:52:56;;;;;;;2.92;2.10;;;30.70;43.00;;;;;;5033349;28;20290;-74
2022/08/04 08:55:26;;;;;;;2.30;2.10;;;30.70;42.90;;;;;;5033448;28;20216;-75
2022/08/04 08:58:18;;;;;;;2.63;2.38;;;30.60;42.90;;;;;;5034877;28;20184;-74
2022/08/04 09:00:51;;;;;;;2.45;2.25;;;30.70;42.80;;;;;;5017454;28;20254;-75
2022/08/04 09:03:27;;;;;;;2.40;2.20;;;30.70;42.90;;;;;;5033233;28;20210;-74
2022/08/04 09:06:27;;;;;;;2.60;2.40;;;30.70;42.90;;;;;;5033613;28;20230;-74
2022/08/04 09:09:10;;;;;;;2.67;2.33;;;30.70;42.90;;;;;;5017178;28;20191;-75
2022/08/04 09:11:42;;;;;;;2.85;2.33;;;30.70;42.90;;;;;;5033135;28;20565;-74
2022/08/04 09:14:15;;;;;;;2.28;2.08;;;30.70;42.90;;;;;;5034510;28;20610;-74
2022/08/04 09:16:47;;;;;;;2.97;2.17;;;30.70;42.90;;;;;;5034158;28;20219;-74
2022/08/04 09:19:17;;;;;;;2.53;2.33;;;30.70;42.90;;;;;;5034898;28;20202;-74
2022/08/04 09:21:47;;;;;;;2.50;2.30;;;30.70;42.90;;;;;;5034372;28;20199;-76
2022/08/04 09:24:19;;;;;;;2.58;2.22;;;30.70;42.90;;;;;;5016255;28;20650;-74
2022/08/04 09:26:48;;;;;;;2.30;2.10;;;30.70;42.90;;;;;;5034386;28;20273;-74
2022/08/04 09:29:17;;;;;;;3.00;2.42;;;30.70;42.90;;;;;;5032851;28;20210;-74
2022/08/04 09:31:49;;;;;;;2.85;2.10;;;30.70;42.90;;;;;;5033160;28;20203;-74
2022/08/04 09:34:21;;;;;;;2.30;2.10;;;30.70;42.90;;;;;;5033024;28;20218;-76
2022/08/04 09:36:57;;;;;;;2.65;2.45;;;30.70;42.90;;;;;;5032784;28;20219;-74
2022/08/04 09:39:26;;;;;;;4.60;2.58;;;30.70;43.00;;;;;;5032812;28;20237;-74
2022/08/04 09:42:00;;;;;;;2.45;1.90;;;30.80;43.60;;;;;;5032517;28;20201;-76
2022/08/04 09:44:33;;;;;;;2.40;2.20;;;30.70;42.90;;;;;;5032950;28;20221;-75
2022/08/04 09:47:06;;;;;;;2.80;2.60;;;30.80;42.90;;;;;;5032421;28;20242;-75
2022/08/04 09:49:36;;;;;;;2.65;2.40;;;30.80;42.90;;;;;;5032613;28;20257;-75
2022/08/04 09:52:07;;;;;;;2.92;2.28;;;30.80;42.90;;;;;;5032825;28;20298;-74
2022/08/04 09:54:43;;;;;;;2.05;1.90;;;30.80;42.90;;;;;;5032469;28;20241;-75
2022/08/04 09:57:14;;;;;;;2.95;2.50;;;30.80;42.90;;;;;;5032663;28;20223;-74
2022/08/04 09:59:44;;;;;;;2.35;2.20;;;30.80;42.90;;;;;;5032366;28;20188;-74
2022/08/04 10:02:13;;;;;;;2.35;2.15;;;30.80;42.90;;;;;;5032488;28;20202;-74
2022/08/04 10:04:40;;;;;;;3.35;2.30;;;30.80;43.00;;;;;;5033598;28;20588;-75
2022/08/04 10:07:19;;;;;;;2.42;2.22;;;30.70;42.90;;;;;;5032265;28;20582;-74
2022/08/04 10:10:00;;;;;;;2.40;2.20;;;30.70;43.00;;;;;;5032391;28;20202;-76
2022/08/04 10:12:31;;;;;;;2.45;2.10;;;30.70;43.10;;;;;;5032238;28;20199;-75
2022/08/04 10:15:06;;;;;;;2.20;2.00;;;30.70;43.10;;;;;;5032240;28;20230;-74
2022/08/04 10:17:39;;;;;;;2.25;2.05;;;30.70;43.20;;;;;;5032142;28;20568;-74
2022/08/04 10:20:09;;;;;;;2.53;2.33;;;30.60;43.10;;;;;;5032131;28;20730;-75
2022/08/04 10:22:38;;;;;;;2.40;2.20;;;30.60;43.20;;;;;;5032878;28;20604;-75
2022/08/04 10:25:10;;;;;;;2.63;2.42;;;30.50;43.30;;;;;;5032305;28;20202;-74
2022/08/04 10:27:40;;;;;;;2.65;2.35;;;30.50;43.50;;;;;;5032623;28;20227;-74
2022/08/04 10:30:10;;;;;;;2.53;2.35;;;30.40;43.50;;;;;;5032283;28;20195;-74
2022/08/04 10:32:44;;;;;;;2.38;2.17;;;30.40;43.60;;;;;;5032515;28;20195;-75
2022/08/04 10:35:13;;;;;;;3.88;2.30;;;30.40;43.70;;;;;;5034718;28;20218;-75
2022/08/04 10:37:43;;;;;;;2.88;2.38;;;30.30;43.90;;;;;;5035944;28;20223;-75
2022/08/04 10:42:59;;;;;;;2.35;2.10;;;30.20;43.80;;;;;;5037440;28;20183;-74
2022/08/04 10:45:28;;;;;;;2.67;2.42;;;30.20;44.00;;;;;;5036467;28;20195;-75
2022/08/04 10:47:58;;;;;;;2.75;2.20;;;30.10;44.10;;;;;;5035923;28;20207;-74
2022/08/04 10:50:25;;;;;;;2.40;2.30;;;30.10;44.20;;;;;;5035853;28;20373;-74
2022/08/04 10:52:55;;;;;;;2.17;2.08;;;30.00;44.20;;;;;;5036643;28;20696;-76
2022/08/04 10:55:27;;;;;;;2.50;2.30;;;30.00;44.40;;;;;;5035781;28;20262;-76
2022/08/04 10:57:58;;;;;;;2.22;2.05;;;30.00;44.50;;;;;;5035826;28;20183;-74
2022/08/04 11:00:25;;;;;;;2.40;2.20;;;29.90;45.20;;;;;;5035922;28;20195;-75
2022/08/04 11:02:55;;;;;;;2.30;2.10;;;29.80;44.60;;;;;;5037201;28;20601;-75
2022/08/04 11:05:29;;;;;;;3.55;2.63;;;29.70;44.80;;;;;;5035815;28;20195;-74
2022/08/04 11:07:59;;;;;;;2.00;1.90;;;29.70;44.80;;;;;;5038497;28;20195;-75
2022/08/04 11:10:28;;;;;;;2.00;1.90;;;29.60;44.90;;;;;;5043010;28;20210;-73
2022/08/04 11:12:57;;;;;;;2.20;2.10;;;29.60;45.00;;;;;;5035927;28;20210;-74
2022/08/04 11:15:27;;;;;;;2.30;2.10;;;29.60;45.10;;;;;;5037041;28;20217;-74
2022/08/04 11:17:56;;;;;;;2.20;2.10;;;29.50;45.00;;;;;;5037098;28;20238;-73
2022/08/04 11:20:29;;;;;;;2.50;2.30;;;29.50;45.30;;;;;;5035822;28;20195;-74
2022/08/04 11:23:00;;;;;;;2.55;2.17;;;29.40;45.30;;;;;;5035554;28;20202;-74
2022/08/04 11:25:29;;;;;;;2.42;2.22;;;29.40;45.10;;;;;;5035129;28;20533;-76
2022/08/04 11:28:01;;;;;;;3.03;2.10;;;29.30;45.40;;;;;;5035117;28;20199;-74
2022/08/04 11:30:31;;;;;;;3.22;2.17;;;29.40;45.60;;;;;;5034939;28;20191;-75
2022/08/04 11:33:02;;;;;;;2.03;1.90;;;29.40;45.70;;;;;;5035067;28;20200;-75
2022/08/04 11:35:32;;;;;;;2.60;2.20;;;29.40;45.60;;;;;;5034831;28;20672;-76
2022/08/04 11:38:04;;;;;;;2.83;1.92;;;29.30;45.50;;;;;;5035246;28;20199;-74
2022/08/04 11:40:36;;;;;;;2.20;2.00;;;29.40;45.50;;;;;;5034933;28;20194;-74
2022/08/04 11:43:06;;;;;;;2.20;2.00;;;29.40;45.30;;;;;;5034675;28;20192;-74
2022/08/04 11:45:36;;;;;;;2.47;2.15;;;29.40;45.50;;;;;;5035377;28;20675;-75
2022/08/04 11:48:05;;;;;;;2.40;2.20;;;29.40;45.40;;;;;;5035175;28;20198;-74
2022/08/04 11:50:37;;;;;;;2.20;2.00;;;29.40;45.40;;;;;;5034834;28;20200;-74
2022/08/04 11:53:04;;;;;;;2.40;2.20;;;29.40;45.50;;;;;;5036592;28;20237;-76
2022/08/04 11:55:31;;;;;;;2.88;1.90;;;29.40;45.30;;;;;;5034749;28;20265;-75
2022/08/04 11:57:58;;;;;;;2.15;2.05;;;29.40;45.30;;;;;;5035969;28;20199;-74
2022/08/04 12:00:25;;;;;;;2.13;2.03;;;29.40;45.30;;;;;;5034730;28;20242;-74
2022/08/04 12:03:01;;;;;;;2.00;1.90;;;29.40;45.20;;;;;;5034621;28;20339;-76
2022/08/04 12:05:35;;;;;;;2.35;2.17;;;29.40;45.30;;;;;;5035555;28;20175;-74
2022/08/04 12:08:08;;;;;;;2.55;2.40;;;29.30;45.00;;;;;;5034351;28;20191;-74
2022/08/04 12:10:41;;;;;;;2.13;2.03;;;29.40;45.20;;;;;;5034475;28;20199;-76
2022/08/04 12:13:25;;;;;;;2.10;1.90;;;29.40;45.10;;;;;;5034330;28;20194;-75
2022/08/04 12:16:00;;;;;;;2.30;2.10;;;29.40;45.00;;;;;;5034346;28;20694;-75
2022/08/04 12:18:33;;;;;;;2.00;1.90;;;29.30;45.20;;;;;;5035432;28;20183;-74
2022/08/04 12:21:05;;;;;;;2.63;1.90;;;29.40;45.00;;;;;;5034950;28;20240;-75
2022/08/04 12:23:35;;;;;;;1.80;1.70;;;29.40;45.10;;;;;;5035409;28;20635;-75
2022/08/04 12:26:04;;;;;;;2.17;2.08;;;29.40;45.10;;;;;;5033862;28;20212;-76
2022/08/04 12:28:33;;;;;;;2.20;2.00;;;29.40;45.00;;;;;;5017788;28;20207;-76
2022/08/04 12:31:02;;;;;;;1.92;1.83;;;29.40;45.20;;;;;;5033815;28;20720;-76
2022/08/04 12:33:33;;;;;;;2.08;1.98;;;29.40;44.60;;;;;;5035236;28;20192;-74
2022/08/04 12:36:05;;;;;;;1.88;1.77;;;29.30;44.80;;;;;;5033590;28;20233;-75
2022/08/04 12:38:33;;;;;;;2.40;2.20;;;29.30;45.10;;;;;;5033949;28;20673;-73
2022/08/04 12:41:02;;;;;;;2.30;2.10;;;29.30;45.00;;;;;;5033770;28;20195;-74
2022/08/04 12:43:34;;;;;;;2.15;2.05;;;29.30;45.10;;;;;;5033876;28;20199;-76
2022/08/04 12:46:03;;;;;;;2.20;2.10;;;29.20;44.70;;;;;;5035173;28;20543;-74
2022/08/04 12:48:30;;;;;;;2.10;2.00;;;29.20;44.90;;;;;;5033552;28;20195;-74
2022/08/04 12:50:59;;;;;;;2.20;2.10;;;29.20;44.70;;;;;;5033479;28;20666;-74
2022/08/04 12:53:30;;;;;;;2.13;1.92;;;29.20;45.00;;;;;;5033523;28;20200;-75
2022/08/04 12:55:57;;;;;;;2.10;1.88;;;29.10;45.40;;;;;;5035453;28;20223;-74
2022/08/04 12:58:26;;;;;;;2.40;2.28;;;29.10;45.10;;;;;;5032973;28;20203;-74
2022/08/04 13:00:54;;;;;;;2.38;2.03;;;29.10;45.10;;;;;;5034084;28;20286;-75
2022/08/04 13:03:22;;;;;;;2.17;2.08;;;29.10;45.80;;;;;;5033289;28;20569;-75
2022/08/04 13:05:52;;;;;;;2.30;2.17;;;29.10;45.40;;;;;;5033349;28;20748;-76
2022/08/04 13:08:20;;;;;;;2.30;2.10;;;29.10;45.00;;;;;;5033187;28;20728;-75
2022/08/04 13:10:52;;;;;;;2.20;2.00;;;29.00;45.40;;;;;;5033352;28;20223;-76
2022/08/04 13:13:20;;;;;;;2.30;2.10;;;29.00;45.20;;;;;;5032987;28;20692;-75
2022/08/04 13:16:05;;;;;;;2.00;1.90;;;29.00;44.80;;;;;;5033361;28;20600;-74
2022/08/04 13:18:35;;;;;;;2.60;2.40;;;28.90;45.10;;;;;;5033103;28;20209;-74